ACA897 LGAV-CYYZ
Flight info
| Callsign | ACA897 |
|---|---|
| Flight time | N/A |
| Altitude | 32000 |
| Route | ATV2E ATV UM749 SKP UL617 TSL UM987 MICPO UL863 EVIVI L863 OKANA DCT TONDO DCT GOTAR DCT LIMRA DCT LAMSI L604 RUDNO DCT SULUS L604 OBISI/N0481F340 L604 BIGGE DCT RAVLO Y70 GOLES UL975 DESIG UL70 PENIL M144 BAGSO DCT ERNAN DCT NIBOG DCT ETARI/M084F340 DCT 56N020W 57N030W 57N040W 57N050W DCT HOIST/N0485F340 N750B YBC/N0477F360 Q910 IMORI Q921 AGLUK Q941 TAMKO Q852 KANUR Q806 TUKIR DCT TADMO IMEBA9 |
| Aircraft | B77W/H-SDE1E2E3FGHIJ2J3J4J5M1RWXY/LB1D1 |
Departure
| Time | N/A |
|---|---|
| Airport | Athens Eleftherios Venizelos International Airport (LGAV) |
Arrival
| Time | 2026-05-05 22:38 |
|---|---|
| Airport | Toronto Pearson International Airport (CYYZ) |
| Time | Latitude | Longitude | Altitude | Speed | Heading |
|---|---|---|---|---|---|
| 2026-05-05 22:25 | 44.18517 | -79.15179 | 10152 ft | 236 kts | 230° |
| 2026-05-05 22:26 | 44.17782 | -79.16279 | 10097 ft | 231 kts | 231° |
| 2026-05-05 22:26 | 44.16727 | -79.17860 | 9999 ft | 224 kts | 231° |
| 2026-05-05 22:26 | 44.15674 | -79.19454 | 9763 ft | 222 kts | 231° |
| 2026-05-05 22:26 | 44.14673 | -79.20966 | 9474 ft | 219 kts | 231° |
| 2026-05-05 22:27 | 44.14259 | -79.21592 | 9345 ft | 218 kts | 231° |
| 2026-05-05 22:27 | 44.13294 | -79.23044 | 9076 ft | 215 kts | 232° |
| 2026-05-05 22:27 | 44.12278 | -79.24576 | 8835 ft | 216 kts | 232° |
| 2026-05-05 22:27 | 44.11432 | -79.25849 | 8611 ft | 218 kts | 232° |
| 2026-05-05 22:28 | 44.10521 | -79.27221 | 8353 ft | 220 kts | 231° |
| 2026-05-05 22:28 | 44.09567 | -79.28652 | 8227 ft | 217 kts | 231° |
| 2026-05-05 22:28 | 44.08545 | -79.30186 | 8122 ft | 216 kts | 231° |
| 2026-05-05 22:28 | 44.07449 | -79.31603 | 8027 ft | 224 kts | 217° |
| 2026-05-05 22:29 | 44.05947 | -79.32395 | 8012 ft | 240 kts | 200° |
| 2026-05-05 22:29 | 44.04225 | -79.32633 | 7752 ft | 254 kts | 192° |
| 2026-05-05 22:29 | 44.02471 | -79.32675 | 7547 ft | 253 kts | 191° |
| 2026-05-05 22:29 | 44.00721 | -79.32701 | 7258 ft | 253 kts | 191° |
| 2026-05-05 22:30 | 43.98957 | -79.32744 | 6780 ft | 259 kts | 191° |
| 2026-05-05 22:30 | 43.97160 | -79.32798 | 6419 ft | 259 kts | 191° |
| 2026-05-05 22:30 | 43.95368 | -79.32861 | 6102 ft | 256 kts | 190° |
| 2026-05-05 22:30 | 43.93616 | -79.32926 | 5808 ft | 253 kts | 190° |
| 2026-05-05 22:31 | 43.91867 | -79.32996 | 5482 ft | 249 kts | 191° |
| 2026-05-05 22:31 | 43.90284 | -79.33515 | 5208 ft | 227 kts | 218° |
| 2026-05-05 22:31 | 43.89120 | -79.34889 | 5016 ft | 222 kts | 230° |
| 2026-05-05 22:31 | 43.88085 | -79.36329 | 4784 ft | 233 kts | 230° |
| 2026-05-05 22:32 | 43.87000 | -79.37875 | 4516 ft | 239 kts | 231° |
| 2026-05-05 22:32 | 43.85864 | -79.39524 | 4246 ft | 239 kts | 231° |
| 2026-05-05 22:32 | 43.84758 | -79.41137 | 3967 ft | 237 kts | 230° |
| 2026-05-05 22:32 | 43.83681 | -79.42712 | 3745 ft | 227 kts | 230° |
| 2026-05-05 22:33 | 43.82621 | -79.44257 | 3491 ft | 212 kts | 231° |
| 2026-05-05 22:33 | 43.81636 | -79.45695 | 3273 ft | 207 kts | 230° |
| 2026-05-05 22:33 | 43.80645 | -79.47146 | 3090 ft | 203 kts | 230° |
| 2026-05-05 22:33 | 43.79706 | -79.48512 | 3036 ft | 189 kts | 230° |
| 2026-05-05 22:34 | 43.78815 | -79.49813 | 2997 ft | 184 kts | 231° |
| 2026-05-05 22:34 | 43.77949 | -79.51077 | 3003 ft | 176 kts | 230° |
| 2026-05-05 22:34 | 43.77125 | -79.52279 | 2870 ft | 176 kts | 230° |
| 2026-05-05 22:34 | 43.76290 | -79.53496 | 2631 ft | 169 kts | 230° |
| 2026-05-05 22:35 | 43.75499 | -79.54647 | 2417 ft | 165 kts | 230° |
| 2026-05-05 22:35 | 43.74703 | -79.55809 | 2171 ft | 168 kts | 230° |
| 2026-05-05 22:35 | 43.73926 | -79.56936 | 1946 ft | 160 kts | 232° |
| 2026-05-05 22:35 | 43.73180 | -79.58025 | 1753 ft | 153 kts | 229° |
| 2026-05-05 22:36 | 43.72463 | -79.59069 | 1574 ft | 159 kts | 231° |
| 2026-05-05 22:36 | 43.71746 | -79.60111 | 1320 ft | 159 kts | 231° |
| 2026-05-05 22:36 | 43.71018 | -79.61165 | 1063 ft | 148 kts | 231° |
| 2026-05-05 22:36 | 43.70353 | -79.62142 | 799 ft | 135 kts | 228° |
| 2026-05-05 22:37 | 43.69707 | -79.63078 | 671 ft | 139 kts | 230° |
| 2026-05-05 22:37 | 43.69059 | -79.64025 | 584 ft | 135 kts | 229° |
| 2026-05-05 22:37 | 43.68562 | -79.64753 | 573 ft | 110 kts | 226° |
| 2026-05-05 22:37 | 43.68160 | -79.65328 | 575 ft | 51 kts | 226° |
| 2026-05-05 22:38 | 43.67951 | -79.65474 | 569 ft | 25 kts | 195° |
| 2026-05-05 22:38 | 43.67845 | -79.65447 | 574 ft | 16 kts | 123° |
| 2026-05-05 22:38 | 43.67890 | -79.65314 | 570 ft | 16 kts | 47° |
| 2026-05-05 22:38 | 43.67968 | -79.65198 | 575 ft | 16 kts | 46° |
| 2026-05-05 22:39 | 43.68047 | -79.65083 | 576 ft | 16 kts | 46° |
| 2026-05-05 22:39 | 43.68126 | -79.64968 | 577 ft | 16 kts | 46° |
| 2026-05-05 22:39 | 43.68205 | -79.64854 | 581 ft | 16 kts | 46° |
| 2026-05-05 22:39 | 43.68285 | -79.64741 | 580 ft | 16 kts | 46° |
| 2026-05-05 22:40 | 43.68334 | -79.64606 | 574 ft | 17 kts | 111° |
| 2026-05-05 22:40 | 43.68246 | -79.64488 | 573 ft | 18 kts | 138° |
| 2026-05-05 22:40 | 43.68157 | -79.64369 | 572 ft | 18 kts | 135° |
| 2026-05-05 22:40 | 43.68067 | -79.64251 | 573 ft | 18 kts | 136° |
| 2026-05-05 22:41 | 43.67976 | -79.64134 | 578 ft | 18 kts | 137° |
| 2026-05-05 22:41 | 43.67885 | -79.64018 | 576 ft | 18 kts | 137° |
| 2026-05-05 22:41 | 43.67797 | -79.63900 | 579 ft | 18 kts | 135° |
| 2026-05-05 22:41 | 43.67708 | -79.63780 | 577 ft | 18 kts | 136° |
| 2026-05-05 22:42 | 43.67626 | -79.63672 | 579 ft | 18 kts | 136° |
| 2026-05-05 22:42 | 43.67538 | -79.63556 | 577 ft | 19 kts | 136° |
| 2026-05-05 22:42 | 43.67444 | -79.63435 | 575 ft | 19 kts | 138° |
| 2026-05-05 22:42 | 43.67348 | -79.63316 | 571 ft | 19 kts | 137° |
| 2026-05-05 22:43 | 43.67254 | -79.63194 | 576 ft | 19 kts | 136° |
| 2026-05-05 22:43 | 43.67161 | -79.63071 | 576 ft | 19 kts | 136° |
| 2026-05-05 22:43 | 43.67067 | -79.62949 | 579 ft | 19 kts | 136° |
| 2026-05-05 22:43 | 43.66973 | -79.62827 | 577 ft | 19 kts | 136° |
| 2026-05-05 22:44 | 43.66880 | -79.62705 | 576 ft | 19 kts | 136° |
| 2026-05-05 22:44 | 43.66798 | -79.62599 | 576 ft | 19 kts | 137° |
| 2026-05-05 22:44 | 43.66706 | -79.62480 | 575 ft | 19 kts | 137° |
| 2026-05-05 22:44 | 43.66607 | -79.62351 | 574 ft | 19 kts | 135° |
| 2026-05-05 22:45 | 43.66530 | -79.62225 | 575 ft | 19 kts | 104° |
| 2026-05-05 22:45 | 43.66602 | -79.62093 | 576 ft | 19 kts | 40° |
| 2026-05-05 22:45 | 43.66699 | -79.61971 | 579 ft | 19 kts | 43° |
| 2026-05-05 22:45 | 43.66795 | -79.61850 | 579 ft | 19 kts | 42° |
| 2026-05-05 22:46 | 43.66892 | -79.61728 | 578 ft | 19 kts | 42° |
| 2026-05-05 22:46 | 43.66987 | -79.61608 | 577 ft | 19 kts | 42° |
| 2026-05-05 22:46 | 43.67084 | -79.61487 | 578 ft | 19 kts | 42° |
| 2026-05-05 22:46 | 43.67178 | -79.61364 | 577 ft | 19 kts | 50° |
| 2026-05-05 22:47 | 43.67261 | -79.61214 | 573 ft | 21 kts | 53° |
| 2026-05-05 22:47 | 43.67349 | -79.61048 | 573 ft | 21 kts | 53° |
| 2026-05-05 22:47 | 43.67439 | -79.60883 | 573 ft | 21 kts | 52° |
| 2026-05-05 22:47 | 43.67536 | -79.60735 | 573 ft | 18 kts | 46° |
| 2026-05-05 22:48 | 43.67601 | -79.60643 | 573 ft | 12 kts | 43° |
| 2026-05-05 22:48 | 43.67671 | -79.60656 | 572 ft | 12 kts | 306° |
| 2026-05-05 22:48 | 43.67681 | -79.60715 | 573 ft | 0 kts | 275° |
| 2026-05-05 22:48 | 43.67682 | -79.60724 | 572 ft | 2 kts | 275° |
| 2026-05-05 22:49 | 43.67683 | -79.60749 | 573 ft | 5 kts | 271° |
| 2026-05-05 22:49 | 43.67684 | -79.60835 | 573 ft | 11 kts | 270° |
| 2026-05-05 22:49 | 43.67683 | -79.60905 | 573 ft | 0 kts | 269° |
| 2026-05-05 22:49 | 43.67683 | -79.60911 | 573 ft | 1 kts | 269° |
| 2026-05-05 22:50 | 43.67683 | -79.60920 | 573 ft | 0 kts | 269° |
| 2026-05-05 22:50 | 43.67683 | -79.60921 | 573 ft | 0 kts | 269° |